Time;durP1;ratioP1;P1;durP2;ratioP2;P2;SDS_P1;SDS_P2;PMS_P1;PMS_P2;Temp;Humidity;BMP_temperature;BMP_pressure;BME280_temperature;BME280_humidity;BME280_pressure;Samples;Min_cycle;Max_cycle;Signal;HPM_P1;HPM_P2
2021/01/26 00:00:22;;;;;;;9.48;5.45;;;11.00;75.30;;;;;;6069394;23;19998;-82
2021/01/26 00:02:48;;;;;;;9.45;5.38;;;11.00;75.10;;;;;;6070410;23;20366;-83
2021/01/26 00:05:15;;;;;;;9.57;5.63;;;11.00;75.50;;;;;;6046888;23;20003;-87
2021/01/26 00:07:41;;;;;;;12.38;5.68;;;11.00;75.80;;;;;;6069228;23;20006;-86
2021/01/26 00:10:11;;;;;;;8.90;6.13;;;10.90;75.90;;;;;;6070078;23;20005;-83
2021/01/26 00:12:42;;;;;;;7.90;5.20;;;10.90;76.70;;;;;;6067990;23;20085;-82
2021/01/26 00:15:11;;;;;;;8.88;4.63;;;11.00;77.00;;;;;;6067131;23;20014;-85
2021/01/26 00:17:55;;;;;;;7.90;4.88;;;11.10;77.10;;;;;;6068866;23;20054;-84
2021/01/26 00:20:22;;;;;;;6.72;4.65;;;10.90;77.90;;;;;;6069086;23;20007;-83
2021/01/26 00:23:51;;;;;;;6.68;4.63;;;10.70;79.20;;;;;;6068399;23;20377;-88
2021/01/26 00:26:33;;;;;;;6.72;4.68;;;10.90;79.30;;;;;;6028275;23;20003;-85
2021/01/26 00:29:23;;;;;;;8.23;4.82;;;10.90;79.50;;;;;;6069241;23;20441;-82
2021/01/26 00:31:49;;;;;;;6.53;4.43;;;11.00;79.80;;;;;;6067856;23;20018;-81
2021/01/26 00:34:21;;;;;;;5.28;3.60;;;11.00;79.90;;;;;;6068755;23;20054;-82
2021/01/26 00:36:47;;;;;;;5.90;3.83;;;11.20;80.60;;;;;;6067424;23;20007;-82
2021/01/26 00:39:13;;;;;;;6.05;3.88;;;11.30;80.40;;;;;;6069540;23;20087;-82
2021/01/26 00:41:39;;;;;;;7.78;4.30;;;11.30;80.10;;;;;;6067396;23;20015;-82
2021/01/26 00:44:05;;;;;;;6.65;4.47;;;11.20;80.40;;;;;;6067500;23;20029;-82
2021/01/26 00:46:31;;;;;;;5.10;3.60;;;11.20;80.60;;;;;;6069860;23;20374;-82
2021/01/26 00:53:10;;;;;;;7.22;4.57;;;11.10;81.80;;;;;;6081331;23;20341;-80
2021/01/26 00:55:39;;;;;;;9.00;5.22;;;10.50;84.50;;;;;;6095435;23;20014;-82
2021/01/26 00:58:31;;;;;;;8.63;5.65;;;10.60;83.90;;;;;;6096656;23;19998;-82
2021/01/26 01:01:00;;;;;;;9.02;5.70;;;10.70;83.30;;;;;;6095545;23;20002;-82
2021/01/26 01:03:29;;;;;;;6.57;4.90;;;10.80;83.60;;;;;;6095247;23;20015;-82
2021/01/26 01:06:00;;;;;;;8.68;5.97;;;10.80;84.50;;;;;;6098165;23;20320;-85
2021/01/26 01:08:26;;;;;;;9.50;5.38;;;10.80;84.10;;;;;;6094999;23;20011;-82
2021/01/26 01:10:52;;;;;;;13.07;6.05;;;10.90;83.60;;;;;;6094759;23;20069;-83
2021/01/26 01:13:19;;;;;;;8.32;5.18;;;10.90;82.40;;;;;;6096618;23;20010;-83
2021/01/26 01:15:45;;;;;;;9.57;5.82;;;10.90;82.90;;;;;;6095118;23;20013;-81
2021/01/26 01:18:11;;;;;;;8.20;5.30;;;10.90;84.90;;;;;;6096574;23;20007;-80
2021/01/26 01:20:37;;;;;;;9.95;5.43;;;10.80;86.40;;;;;;6097051;23;20013;-84
2021/01/26 01:23:04;;;;;;;8.32;5.53;;;10.60;86.90;;;;;;6096949;23;20479;-84
2021/01/26 01:25:30;;;;;;;5.93;4.43;;;10.50;88.50;;;;;;6097213;23;20006;-84
2021/01/26 01:27:56;;;;;;;8.23;5.32;;;10.80;88.50;;;;;;6094967;23;20010;-84
2021/01/26 01:30:27;;;;;;;8.55;5.75;;;10.80;87.10;;;;;;6096560;23;20032;-84
2021/01/26 01:32:53;;;;;;;9.77;6.30;;;10.80;87.50;;;;;;6094929;23;20382;-80
2021/01/26 01:35:20;;;;;;;10.75;6.40;;;10.80;87.00;;;;;;6096636;23;20343;-83
2021/01/26 01:37:47;;;;;;;8.60;5.10;;;10.80;86.80;;;;;;6095630;23;20346;-83
2021/01/26 01:40:20;;;;;;;7.70;4.78;;;10.80;87.70;;;;;;6095783;23;20006;-82
2021/01/26 01:42:50;;;;;;;8.70;5.10;;;10.90;88.20;;;;;;6096537;23;20153;-83
2021/01/26 01:45:18;;;;;;;8.13;5.13;;;10.90;88.40;;;;;;6095062;23;20014;-82
2021/01/26 01:47:51;;;;;;;10.05;5.38;;;10.80;89.10;;;;;;6095005;23;20333;-84
2021/01/26 01:50:28;;;;;;;8.65;5.50;;;10.80;89.50;;;;;;6096925;23;20038;-83
2021/01/26 01:53:02;;;;;;;7.78;5.18;;;10.80;89.20;;;;;;6096117;23;20070;-81
2021/01/26 01:55:34;;;;;;;10.27;5.50;;;10.80;90.70;;;;;;6119223;23;20010;-80
2021/01/26 01:58:05;;;;;;;7.13;4.70;;;10.80;91.10;;;;;;6097201;23;20472;-82
2021/01/26 02:00:33;;;;;;;5.07;3.90;;;10.60;92.70;;;;;;6097155;23;20003;-80
2021/01/26 02:03:24;;;;;;;4.35;3.42;;;10.60;95.70;;;;;;6097117;23;20049;-82
2021/01/26 02:05:53;;;;;;;4.45;3.30;;;10.60;97.70;;;;;;6094483;23;20101;-81
2021/01/26 02:08:33;;;;;;;8.13;3.60;;;10.80;97.50;;;;;;6096297;23;20018;-82
2021/01/26 02:10:59;;;;;;;4.45;3.40;;;10.80;97.80;;;;;;6097805;23;20007;-81
2021/01/26 02:13:25;;;;;;;4.20;3.42;;;10.70;99.20;;;;;;6097172;23;20014;-82
2021/01/26 02:15:56;;;;;;;4.00;3.03;;;10.80;99.60;;;;;;6099032;23;20003;-79
2021/01/26 02:18:33;;;;;;;;;;;10.80;99.90;;;;;;6098957;23;20026;-84
2021/01/26 02:21:02;;;;;;;4.28;3.40;;;10.70;99.90;;;;;;6099317;23;19916;-81
2021/01/26 02:26:24;;;;;;;5.07;3.50;;;10.60;99.90;;;;;;6099048;23;20025;-82
2021/01/26 02:39:01;;;;;;;6.47;3.67;;;9.90;99.90;;;;;;5944609;23;20116;-82
2021/01/26 02:41:28;;;;;;;3.90;3.17;;;9.90;99.90;;;;;;6038265;23;20011;-84
2021/01/26 02:44:09;;;;;;;3.67;3.10;;;9.70;99.90;;;;;;6014572;23;20007;-84
2021/01/26 02:47:03;;;;;;;4.13;3.20;;;9.50;99.90;;;;;;6014964;23;20019;-82
2021/01/26 02:50:00;;;;;;;3.80;3.00;;;9.40;99.90;;;;;;6046937;23;20538;-82
2021/01/26 03:01:58;;;;;;;6.47;3.60;;;9.90;99.90;;;;;;6098320;23;20018;-80
2021/01/26 03:04:31;;;;;;;4.35;3.55;;;10.00;99.90;;;;;;6096711;23;20037;-81
2021/01/26 03:07:00;;;;;;;4.68;3.30;;;10.10;99.90;;;;;;6096348;23;20002;-81
2021/01/26 03:09:31;;;;;;;5.03;3.58;;;10.20;99.90;;;;;;6097512;23;19999;-84
2021/01/26 03:12:24;;;;;;;4.38;3.20;;;10.20;99.90;;;;;;6098275;23;20014;-81
2021/01/26 03:15:16;;;;;;;4.43;3.40;;;10.30;99.90;;;;;;6098131;23;20017;-81
2021/01/26 03:17:46;;;;;;;3.40;2.80;;;9.60;99.90;;;;;;6082231;23;20002;-81
2021/01/26 03:20:31;;;;;;;4.28;3.45;;;9.30;99.90;;;;;;6096391;23;20014;-82
2021/01/26 03:23:00;;;;;;;5.20;4.00;;;9.60;99.90;;;;;;6096346;23;20007;-82
2021/01/26 03:25:28;;;;;;;3.50;3.20;;;9.90;99.90;;;;;;6097872;23;20002;-83
2021/01/26 03:27:59;;;;;;;3.60;3.10;;;9.60;99.90;;;;;;6098746;23;19999;-83
2021/01/26 03:30:35;;;;;;;4.20;3.22;;;9.10;99.90;;;;;;6098547;23;20350;-82
2021/01/26 03:33:24;;;;;;;3.80;3.40;;;9.10;99.90;;;;;;6099103;23;20014;-81
2021/01/26 03:35:50;;;;;;;3.40;3.05;;;9.00;99.90;;;;;;6088103;23;20003;-81
2021/01/26 03:38:22;;;;;;;3.45;3.13;;;9.00;99.90;;;;;;6096122;23;20318;-82
2021/01/26 03:40:53;;;;;;;3.95;3.00;;;9.10;99.90;;;;;;6098772;23;20053;-86
2021/01/26 03:43:19;;;;;;;;;;;9.10;99.90;;;;;;6122378;23;20013;-86
2021/01/26 03:52:12;;;;;;;3.60;3.10;;;9.20;99.90;;;;;;6107685;23;20063;-83
2021/01/26 03:54:48;;;;;;;3.63;3.13;;;9.40;99.90;;;;;;6126510;23;20034;-81
2021/01/26 03:57:33;;;;;;;3.35;3.05;;;9.40;99.90;;;;;;6126800;23;20061;-81
2021/01/26 04:00:32;;;;;;;3.80;3.40;;;9.20;99.90;;;;;;6053361;23;20006;-81
2021/01/26 04:03:29;;;;;;;3.60;3.25;;;9.30;99.90;;;;;;6100955;23;20010;-83
2021/01/26 04:06:19;;;;;;;3.55;3.10;;;9.30;99.90;;;;;;6101282;23;20042;-82
2021/01/26 04:08:56;;;;;;;3.90;3.40;;;9.20;99.90;;;;;;6127969;23;20077;-85
2021/01/26 04:11:55;;;;;;;3.55;3.15;;;9.20;99.90;;;;;;6101613;23;20228;-83
2021/01/26 04:14:38;;;;;;;3.40;3.00;;;9.40;99.90;;;;;;6101953;23;20005;-81
2021/01/26 04:17:26;;;;;;;3.40;3.10;;;9.00;99.90;;;;;;6127996;23;19998;-84
2021/01/26 04:20:05;;;;;;;4.07;3.15;;;8.70;99.90;;;;;;6101501;23;20317;-81
2021/01/26 04:22:31;;;;;;;3.47;2.75;;;8.70;99.90;;;;;;6127419;23;20009;-83
2021/01/26 04:24:57;;;;;;;3.70;3.20;;;8.60;99.90;;;;;;6101670;23;20297;-84
2021/01/26 04:27:24;;;;;;;4.03;3.20;;;8.60;99.90;;;;;;6128183;23;20490;-86
2021/01/26 04:29:51;;;;;;;4.28;3.30;;;8.60;99.90;;;;;;6127182;23;20006;-81
2021/01/26 04:32:19;;;;;;;3.92;3.40;;;8.60;99.90;;;;;;6100905;23;20347;-84
2021/01/26 04:34:46;;;;;;;3.47;3.17;;;8.60;99.90;;;;;;6127287;23;20033;-82
2021/01/26 04:37:12;;;;;;;3.30;3.00;;;8.60;99.90;;;;;;6126827;23;20014;-83
2021/01/26 04:39:43;;;;;;;3.38;3.08;;;8.60;99.90;;;;;;6064911;23;20057;-81
2021/01/26 04:46:21;;;;;;;;;;;;;;;;;;;;;
2021/01/26 04:49:22;;;;;;;;;;;8.60;99.90;;;;;;5932169;24;20111;-82
2021/01/26 04:52:30;;;;;;;3.72;3.30;;;8.80;99.90;;;;;;5929391;24;19925;-83
2021/01/26 04:55:14;;;;;;;3.88;3.30;;;8.60;99.90;;;;;;6025399;23;20019;-81
2021/01/26 04:58:11;;;;;;;3.83;3.40;;;8.70;99.90;;;;;;6012765;23;20003;-82
2021/01/26 05:00:54;;;;;;;3.60;3.20;;;8.60;99.90;;;;;;6036324;23;20011;-81
2021/01/26 05:03:35;;;;;;;3.50;3.20;;;8.60;99.90;;;;;;6037182;23;20008;-82
2021/01/26 05:06:05;;;;;;;3.40;3.10;;;8.60;99.90;;;;;;6013209;23;20019;-81
2021/01/26 05:08:42;;;;;;;3.55;3.20;;;8.50;99.90;;;;;;6037464;23;20408;-83
2021/01/26 05:11:10;;;;;;;3.38;3.08;;;8.50;99.90;;;;;;6053673;23;20011;-83
2021/01/26 05:13:47;;;;;;;3.75;3.40;;;8.60;99.90;;;;;;6097468;23;20070;-82
2021/01/26 05:16:18;;;;;;;3.42;3.00;;;9.00;99.90;;;;;;6072695;23;20006;-82
2021/01/26 05:18:53;;;;;;;3.38;3.08;;;8.80;99.90;;;;;;6072309;23;20002;-83
2021/01/26 05:21:31;;;;;;;4.28;3.40;;;9.00;99.90;;;;;;6071579;23;20006;-83
2021/01/26 05:24:03;;;;;;;3.95;3.22;;;9.00;99.90;;;;;;6096521;23;20007;-84
2021/01/26 05:26:28;;;;;;;3.75;3.33;;;8.80;99.90;;;;;;6070317;23;20031;-80
2021/01/26 05:28:57;;;;;;;4.45;3.78;;;8.50;99.90;;;;;;6071511;23;20017;-82
2021/01/26 05:31:28;;;;;;;4.90;3.83;;;8.40;99.90;;;;;;6071114;23;20011;-82
2021/01/26 05:33:59;;;;;;;5.20;4.30;;;8.00;99.90;;;;;;6072015;23;20569;-82
2021/01/26 05:36:25;;;;;;;5.82;4.28;;;8.10;99.90;;;;;;6072266;23;19998;-85
2021/01/26 05:38:53;;;;;;;6.00;4.25;;;8.50;99.90;;;;;;6071912;23;20014;-84
2021/01/26 05:41:20;;;;;;;6.22;4.57;;;8.20;99.90;;;;;;6097318;23;20069;-83
2021/01/26 05:43:47;;;;;;;8.52;4.38;;;8.00;99.90;;;;;;6071515;23;20026;-83
2021/01/26 05:46:44;;;;;;;6.03;4.30;;;8.30;99.90;;;;;;6072637;23;20029;-85
2021/01/26 05:49:36;;;;;;;6.50;4.60;;;7.70;99.90;;;;;;6073273;23;20034;-82
2021/01/26 05:52:04;;;;;;;5.55;4.63;;;7.50;99.90;;;;;;6073052;23;20018;-80
2021/01/26 05:54:34;;;;;;;5.28;4.63;;;7.20;99.90;;;;;;6074007;23;20014;-84
2021/01/26 05:57:00;;;;;;;4.97;4.33;;;7.20;99.90;;;;;;6073307;23;20029;-83
2021/01/26 05:59:31;;;;;;;8.82;4.40;;;7.60;99.90;;;;;;6099197;23;20263;-82
2021/01/26 06:02:19;;;;;;;;;;;7.50;99.90;;;;;;6073561;23;20525;-83
2021/01/26 06:04:44;;;;;;;7.30;4.90;;;6.90;99.90;;;;;;6073879;23;20235;-79
2021/01/26 06:07:24;;;;;;;5.28;4.43;;;6.60;99.90;;;;;;6073287;23;20002;-84
2021/01/26 06:16:29;;;;;;;5.28;4.53;;;6.50;99.90;;;;;;5965483;23;20099;-82
2021/01/26 06:18:57;;;;;;;7.13;4.78;;;6.60;99.90;;;;;;6074325;23;20018;-85
2021/01/26 06:21:48;;;;;;;8.43;5.68;;;6.60;99.90;;;;;;6105411;23;20026;-90
2021/01/26 06:24:18;;;;;;;5.47;4.72;;;7.00;99.90;;;;;;6076315;23;20070;-84
2021/01/26 06:27:18;;;;;;;4.93;4.20;;;6.60;99.90;;;;;;6073932;23;20006;-85
2021/01/26 06:30:09;;;;;;;5.72;4.53;;;6.40;99.90;;;;;;6031930;23;20062;-87
2021/01/26 06:33:03;;;;;;;4.63;4.10;;;6.40;99.90;;;;;;6077423;23;20018;-84
2021/01/26 06:39:44;;;;;;;8.35;5.78;;;6.20;99.90;;;;;;6107951;23;20066;-85
2021/01/26 06:42:25;;;;;;;27.83;16.00;;;6.40;99.90;;;;;;6105143;23;20305;-87
2021/01/26 06:45:04;;;;;;;4.40;4.00;;;6.80;99.90;;;;;;6075079;23;20093;-83
2021/01/26 06:47:55;;;;;;;7.50;4.35;;;6.00;99.90;;;;;;6073337;23;19998;-84
2021/01/26 06:50:39;;;;;;;4.45;4.05;;;5.80;99.90;;;;;;6073084;23;20010;-83
2021/01/26 06:53:34;;;;;;;5.25;3.88;;;5.80;99.90;;;;;;6097972;23;20026;-84
2021/01/26 06:56:37;;;;;;;4.18;3.78;;;5.60;99.90;;;;;;6098622;23;20005;-81
2021/01/26 06:59:19;;;;;;;7.93;3.60;;;5.50;99.90;;;;;;6097163;23;20013;-81
2021/01/26 07:02:23;;;;;;;4.28;3.88;;;5.60;99.90;;;;;;6065668;23;20042;-88
2021/01/26 07:08:59;;;;;;;9.65;6.25;;;5.30;99.90;;;;;;6012889;23;20039;-86
2021/01/26 07:15:08;;;;;;;4.75;3.88;;;5.10;99.90;;;;;;6009318;23;20060;-87
2021/01/26 07:17:49;;;;;;;4.38;3.97;;;5.00;99.90;;;;;;6009572;23;20015;-83
2021/01/26 07:20:25;;;;;;;4.28;3.88;;;4.70;99.90;;;;;;6053674;23;20006;-84
2021/01/26 07:23:25;;;;;;;5.15;4.13;;;4.60;99.90;;;;;;6095689;23;20003;-82
2021/01/26 07:26:15;;;;;;;4.07;3.73;;;5.00;99.90;;;;;;6016278;23;20006;-82
2021/01/26 07:29:27;;;;;;;4.55;4.15;;;4.50;99.90;;;;;;6095077;23;19998;-84
2021/01/26 07:32:19;;;;;;;4.15;3.75;;;4.60;99.90;;;;;;6094512;23;20010;-84
2021/01/26 07:34:53;;;;;;;3.90;3.60;;;4.50;99.90;;;;;;6069613;23;20040;-82
2021/01/26 07:37:26;;;;;;;4.40;3.85;;;4.60;99.90;;;;;;6097410;23;20057;-82
2021/01/26 07:40:33;;;;;;;4.53;4.13;;;4.50;99.90;;;;;;6097082;23;20101;-83
2021/01/26 07:46:37;;;;;;;4.30;3.90;;;4.40;99.90;;;;;;6060588;23;20017;-85
2021/01/26 07:49:30;;;;;;;4.28;3.88;;;4.40;99.90;;;;;;6072222;23;20106;-87
2021/01/26 07:52:00;;;;;;;4.50;4.10;;;4.30;99.90;;;;;;5952944;24;20473;-85
2021/01/26 07:54:40;;;;;;;4.82;4.40;;;4.40;99.90;;;;;;6059128;23;20480;-85
2021/01/26 07:57:06;;;;;;;4.30;3.90;;;4.40;99.90;;;;;;6072479;23;20002;-85
2021/01/26 07:59:37;;;;;;;4.38;3.97;;;4.30;99.90;;;;;;6097035;23;20010;-85
2021/01/26 08:02:12;;;;;;;4.35;3.95;;;4.10;99.90;;;;;;6071487;23;20042;-81
2021/01/26 08:04:42;;;;;;;6.18;4.60;;;4.40;99.90;;;;;;6097144;23;20047;-83
2021/01/26 08:07:09;;;;;;;4.40;4.00;;;4.20;99.90;;;;;;6072427;23;20014;-83
2021/01/26 08:09:43;;;;;;;5.53;4.68;;;4.00;99.90;;;;;;6071348;23;20006;-86
2021/01/26 08:12:35;;;;;;;5.00;4.07;;;3.80;99.90;;;;;;6072024;23;20037;-87
2021/01/26 08:15:36;;;;;;;5.00;4.50;;;3.80;99.90;;;;;;6064904;23;20010;-84
2021/01/26 08:18:26;;;;;;;5.53;4.40;;;4.00;99.90;;;;;;6071542;23;20006;-83
2021/01/26 08:20:53;;;;;;;6.20;4.32;;;3.90;99.90;;;;;;6071035;23;20003;-84
2021/01/26 08:23:28;;;;;;;4.45;4.05;;;3.90;99.90;;;;;;6097031;23;20006;-86
2021/01/26 08:25:55;;;;;;;4.80;4.30;;;3.80;99.90;;;;;;6071330;23;20662;-83
2021/01/26 08:28:39;;;;;;;4.45;4.05;;;3.80;99.90;;;;;;6071142;23;20006;-82
2021/01/26 08:31:31;;;;;;;4.43;4.03;;;3.90;99.90;;;;;;6096325;23;20440;-85
2021/01/26 08:34:25;;;;;;;4.70;4.20;;;3.70;99.90;;;;;;6095939;23;20010;-83
2021/01/26 08:37:10;;;;;;;4.88;4.38;;;3.80;99.90;;;;;;6096220;23;19999;-83
2021/01/26 08:39:49;;;;;;;4.43;4.03;;;3.70;99.90;;;;;;6095913;23;20041;-85
2021/01/26 08:42:44;;;;;;;4.28;3.88;;;3.60;99.90;;;;;;6096337;23;20009;-84
2021/01/26 08:45:15;;;;;;;4.68;4.25;;;3.60;99.90;;;;;;6068504;23;20345;-84
2021/01/26 08:47:50;;;;;;;4.43;4.03;;;3.60;99.90;;;;;;6071190;23;19998;-84
2021/01/26 08:50:24;;;;;;;5.13;4.63;;;3.60;99.90;;;;;;6070596;23;20010;-85
2021/01/26 08:55:41;;;;;;;5.60;4.85;;;3.50;99.90;;;;;;6124244;23;20455;-82
2021/01/26 08:59:06;;;;;;;;;;;;;;;;;;;;;
2021/01/26 09:01:35;;;;;;;4.55;4.15;;;3.40;99.90;;;;;;6125322;23;20097;-82
2021/01/26 09:04:13;;;;;;;5.60;4.40;;;3.10;99.90;;;;;;6100148;23;20049;-84
2021/01/26 09:06:38;;;;;;;5.88;5.03;;;3.10;99.90;;;;;;6099692;23;20018;-84
2021/01/26 09:09:06;;;;;;;5.15;4.53;;;3.00;99.90;;;;;;6099771;23;20012;-83
2021/01/26 09:12:00;;;;;;;5.15;4.65;;;3.20;99.90;;;;;;6124725;23;20017;-85
2021/01/26 09:14:35;;;;;;;5.18;4.68;;;3.10;99.90;;;;;;6080091;23;20014;-84
2021/01/26 09:17:06;;;;;;;5.30;4.72;;;2.90;99.90;;;;;;6099543;23;20547;-82
2021/01/26 09:20:05;;;;;;;9.70;5.45;;;2.80;99.90;;;;;;6098761;23;20002;-83
2021/01/26 09:22:32;;;;;;;5.57;4.88;;;2.80;99.90;;;;;;6098836;23;20010;-82
2021/01/26 09:25:22;;;;;;;5.05;4.55;;;2.80;99.90;;;;;;6100763;23;20084;-82
2021/01/26 09:28:06;;;;;;;5.03;4.45;;;2.80;99.90;;;;;;6102409;23;20071;-83
2021/01/26 09:30:39;;;;;;;7.10;5.38;;;2.80;99.90;;;;;;6089939;23;20028;-86
2021/01/26 09:33:27;;;;;;;5.18;4.70;;;2.90;99.90;;;;;;6101815;23;20020;-86
2021/01/26 09:36:02;;;;;;;5.20;4.55;;;2.80;99.90;;;;;;6101105;23;20029;-82
2021/01/26 09:38:53;;;;;;;5.63;5.03;;;2.70;99.90;;;;;;6126205;23;20073;-80
2021/01/26 09:41:25;;;;;;;5.82;5.20;;;2.50;99.90;;;;;;6100922;23;20643;-83
2021/01/26 09:44:09;;;;;;;6.25;5.60;;;2.50;99.90;;;;;;6101605;23;20009;-82
2021/01/26 09:46:55;;;;;;;6.38;4.90;;;2.50;99.90;;;;;;6101375;23;20127;-84
2021/01/26 09:49:27;;;;;;;7.75;5.43;;;2.60;99.90;;;;;;6100978;23;20464;-81
2021/01/26 09:52:15;;;;;;;6.97;5.55;;;2.60;99.90;;;;;;6101208;23;20006;-82
2021/01/26 09:54:52;;;;;;;7.32;5.40;;;2.80;99.90;;;;;;6100789;23;20048;-83
2021/01/26 09:57:19;;;;;;;6.00;5.30;;;2.50;99.90;;;;;;6100793;23;20009;-82
2021/01/26 09:59:45;;;;;;;6.18;5.57;;;3.00;99.90;;;;;;6100110;23;20565;-81
2021/01/26 10:02:16;;;;;;;5.75;5.15;;;2.90;99.90;;;;;;6099143;23;20033;-81
2021/01/26 10:04:47;;;;;;;6.38;5.22;;;2.70;99.90;;;;;;6127883;23;20306;-82
2021/01/26 10:07:19;;;;;;;;;;;2.50;99.90;;;;;;6100327;23;20038;-83
2021/01/26 10:09:45;;;;;;;6.45;5.20;;;2.50;99.90;;;;;;6093164;23;19925;-85
2021/01/26 10:18:45;;;;;;;9.63;6.70;;;2.60;99.90;;;;;;6091304;23;20448;-84
2021/01/26 10:21:13;;;;;;;7.18;5.70;;;2.80;99.90;;;;;;6093537;23;20348;-84
2021/01/26 10:23:44;;;;;;;6.63;5.90;;;2.80;99.90;;;;;;6086429;23;20090;-82
2021/01/26 10:26:30;;;;;;;6.32;5.32;;;2.50;99.90;;;;;;6098178;23;20002;-86
2021/01/26 10:29:20;;;;;;;6.15;5.38;;;2.30;99.90;;;;;;6099897;23;20377;-83
2021/01/26 10:32:09;;;;;;;6.72;5.28;;;2.20;99.90;;;;;;6098638;23;20010;-83
2021/01/26 10:34:41;;;;;;;6.38;5.13;;;2.20;99.90;;;;;;6097235;23;19998;-85
2021/01/26 10:37:10;;;;;;;6.55;5.82;;;2.20;99.90;;;;;;6096813;23;19998;-80
2021/01/26 10:39:35;;;;;;;5.60;4.90;;;2.30;99.90;;;;;;6075979;23;20018;-79
2021/01/26 10:45:44;;;;;;;5.93;5.20;;;2.30;99.90;;;;;;6097137;23;20109;-87
2021/01/26 10:48:47;;;;;;;5.82;5.05;;;2.40;99.90;;;;;;6096405;23;20010;-84
2021/01/26 10:51:47;;;;;;;5.68;4.32;;;2.40;99.90;;;;;;6099040;23;20110;-84
2021/01/26 10:54:23;;;;;;;6.83;5.67;;;2.40;99.90;;;;;;6097877;23;20014;-87
2021/01/26 10:56:55;;;;;;;5.32;4.82;;;2.50;99.90;;;;;;6097640;23;20535;-84
2021/01/26 10:59:41;;;;;;;5.20;4.70;;;2.50;99.90;;;;;;6098233;23;20029;-83
2021/01/26 11:02:11;;;;;;;6.32;4.70;;;2.50;99.90;;;;;;6096783;23;20339;-82
2021/01/26 11:04:37;;;;;;;6.00;4.70;;;2.40;99.90;;;;;;6124128;23;20007;-87
2021/01/26 11:07:03;;;;;;;7.35;5.32;;;2.40;99.90;;;;;;6096232;23;20108;-88
2021/01/26 11:09:29;;;;;;;6.03;4.95;;;2.60;99.90;;;;;;6096654;23;20282;-82
2021/01/26 11:11:54;;;;;;;7.07;5.93;;;2.60;99.90;;;;;;6097117;23;20471;-87
2021/01/26 11:14:20;;;;;;;7.05;5.63;;;2.70;99.90;;;;;;6097818;23;20027;-85
2021/01/26 11:16:46;;;;;;;5.72;5.18;;;2.80;99.90;;;;;;6097854;23;20041;-83
2021/01/26 11:19:15;;;;;;;5.55;4.90;;;2.90;99.90;;;;;;6095654;23;20006;-83
2021/01/26 11:21:41;;;;;;;5.85;5.25;;;2.90;99.90;;;;;;6095037;23;20081;-84
2021/01/26 11:24:10;;;;;;;5.40;4.85;;;2.90;99.90;;;;;;6096838;23;20421;-84
2021/01/26 11:26:36;;;;;;;6.10;5.25;;;2.90;99.90;;;;;;6096194;23;20006;-82
2021/01/26 11:29:02;;;;;;;5.15;4.65;;;2.80;99.90;;;;;;6095000;23;20069;-81
2021/01/26 11:31:28;;;;;;;5.72;5.20;;;2.90;99.90;;;;;;6094116;23;20002;-82
2021/01/26 11:34:00;;;;;;;5.82;4.72;;;3.20;99.90;;;;;;6095716;23;20018;-85
2021/01/26 11:36:26;;;;;;;7.50;5.25;;;3.10;99.90;;;;;;6095771;23;20369;-82
2021/01/26 11:39:01;;;;;;;5.95;4.93;;;3.20;99.90;;;;;;6094961;23;20553;-81
2021/01/26 11:41:26;;;;;;;5.97;5.03;;;3.00;99.90;;;;;;6095112;23;20033;-82
2021/01/26 11:43:52;;;;;;;5.70;5.15;;;2.90;99.90;;;;;;6094908;23;20021;-83
2021/01/26 11:46:18;;;;;;;6.95;5.15;;;2.90;99.90;;;;;;6093118;23;20532;-81
2021/01/26 11:48:44;;;;;;;5.22;4.72;;;3.00;99.90;;;;;;6092739;23;20025;-81
2021/01/26 11:51:10;;;;;;;5.78;4.93;;;3.00;99.90;;;;;;6093145;23;20410;-81
2021/01/26 11:53:36;;;;;;;6.60;5.38;;;3.10;99.90;;;;;;6093358;23;20036;-81
2021/01/26 11:56:07;;;;;;;6.10;5.30;;;3.00;99.90;;;;;;6094439;23;20492;-84
2021/01/26 11:58:35;;;;;;;6.75;5.25;;;3.00;99.90;;;;;;6093125;23;20072;-80
2021/01/26 12:01:00;;;;;;;6.25;5.35;;;3.10;99.90;;;;;;6094927;23;19999;-81
2021/01/26 12:03:31;;;;;;;8.50;6.50;;;3.10;99.90;;;;;;6095186;23;20007;-78
2021/01/26 12:05:57;;;;;;;;;;;3.10;99.90;;;;;;6097333;23;20022;-82
2021/01/26 12:08:23;;;;;;;6.40;5.75;;;3.20;99.90;;;;;;6093711;23;19901;-82
2021/01/26 12:10:50;;;;;;;5.78;5.18;;;3.20;99.90;;;;;;6095891;23;20017;-83
2021/01/26 12:16:19;;;;;;;7.45;5.97;;;3.20;99.90;;;;;;6067625;23;20030;-82
2021/01/26 12:18:53;;;;;;;6.93;5.70;;;3.30;99.90;;;;;;6041238;23;20038;-85
2021/01/26 12:21:19;;;;;;;6.38;5.40;;;3.10;99.90;;;;;;6042637;23;20011;-86
2021/01/26 12:23:48;;;;;;;6.47;5.03;;;3.20;99.90;;;;;;6067331;23;20014;-85
2021/01/26 12:26:55;;;;;;;6.22;5.63;;;3.20;99.90;;;;;;6042332;23;20003;-84
2021/01/26 12:29:24;;;;;;;6.95;5.80;;;3.40;99.90;;;;;;6042547;23;20015;-85
2021/01/26 12:31:50;;;;;;;6.70;5.70;;;3.90;99.90;;;;;;6068032;23;20003;-87
2021/01/26 12:34:22;;;;;;;5.80;4.85;;;3.60;99.90;;;;;;6042908;23;20010;-84
2021/01/26 12:36:50;;;;;;;6.88;5.88;;;3.20;99.90;;;;;;6042504;23;20003;-83
2021/01/26 12:39:17;;;;;;;7.63;5.95;;;3.20;99.90;;;;;;6041255;23;20018;-85
2021/01/26 12:41:46;;;;;;;6.32;5.57;;;3.40;99.90;;;;;;6066621;23;20019;-87
2021/01/26 12:44:12;;;;;;;6.85;5.75;;;3.50;99.90;;;;;;6039627;23;20030;-86
2021/01/26 12:46:45;;;;;;;7.50;5.90;;;3.40;99.90;;;;;;6015220;23;20019;-84
2021/01/26 12:49:11;;;;;;;6.32;5.72;;;3.50;99.90;;;;;;6013783;23;20007;-81
2021/01/26 12:51:38;;;;;;;5.75;4.88;;;3.50;99.90;;;;;;6038152;23;20130;-84
2021/01/26 12:54:04;;;;;;;7.03;5.72;;;3.70;99.90;;;;;;6038478;23;20019;-84
2021/01/26 12:56:30;;;;;;;6.93;5.65;;;3.60;99.90;;;;;;6014186;23;20000;-87
2021/01/26 12:59:11;;;;;;;6.28;5.57;;;3.40;99.90;;;;;;6038102;23;20007;-87
2021/01/26 13:01:38;;;;;;;6.70;6.00;;;3.30;99.90;;;;;;6014080;23;20006;-83
2021/01/26 13:04:04;;;;;;;7.55;6.07;;;3.20;99.90;;;;;;6013732;23;20007;-85
2021/01/26 13:06:32;;;;;;;6.78;5.75;;;3.40;99.90;;;;;;6039093;23;20010;-82
2021/01/26 13:08:58;;;;;;;6.65;5.90;;;3.20;99.90;;;;;;6037754;23;20043;-85
2021/01/26 13:11:24;;;;;;;6.97;5.80;;;3.40;99.90;;;;;;6039313;23;20003;-85
2021/01/26 13:13:50;;;;;;;8.43;6.10;;;3.30;99.90;;;;;;6040442;23;20086;-80
2021/01/26 13:16:16;;;;;;;8.25;6.05;;;3.30;99.90;;;;;;6038499;23;20050;-79
2021/01/26 13:25:24;;;;;;;8.77;6.40;;;3.90;99.90;;;;;;6093195;23;20356;-79
2021/01/26 13:30:53;;;;;;;8.55;6.10;;;4.40;99.90;;;;;;6099084;23;20433;-91
2021/01/26 13:35:54;;;;;;;6.55;5.47;;;4.30;99.90;;;;;;6061080;23;20022;-82
2021/01/26 13:38:27;;;;;;;7.93;6.20;;;4.40;99.90;;;;;;6070595;23;19998;-86
2021/01/26 13:41:01;;;;;;;8.30;6.20;;;4.30;99.90;;;;;;6073840;23;20320;-87
2021/01/26 13:43:27;;;;;;;7.75;5.60;;;4.50;99.90;;;;;;6073629;23;20424;-81
2021/01/26 13:46:27;;;;;;;7.38;5.95;;;4.60;99.90;;;;;;6098170;23;20049;-90
2021/01/26 13:48:54;;;;;;;7.95;6.40;;;4.60;99.90;;;;;;6097479;23;20002;-83
2021/01/26 13:53:56;;;;;;;8.75;6.50;;;4.40;99.90;;;;;;6039215;23;20251;-80
2021/01/26 13:57:11;;;;;;;9.00;7.35;;;4.30;99.90;;;;;;6039597;23;19995;-84
2021/01/26 14:03:06;;;;;;;11.93;8.38;;;4.00;99.90;;;;;;6095321;23;20022;-85
2021/01/26 14:05:33;;;;;;;13.50;8.18;;;4.00;99.90;;;;;;6097560;23;20093;-81
2021/01/26 14:08:46;;;;;;;11.82;8.27;;;4.10;99.90;;;;;;6095845;23;20002;-84
2021/01/26 14:13:55;;;;;;;11.45;8.48;;;4.30;99.90;;;;;;6097452;23;20069;-80
2021/01/26 14:16:21;;;;;;;9.93;8.00;;;4.40;99.90;;;;;;6096960;23;19999;-81
2021/01/26 14:18:48;;;;;;;10.20;7.60;;;4.40;99.90;;;;;;6095648;23;20002;-79
2021/01/26 14:21:55;;;;;;;7.75;6.50;;;4.30;99.90;;;;;;6097258;23;20329;-86
2021/01/26 14:24:29;;;;;;;10.15;7.60;;;4.40;99.90;;;;;;6000959;23;20011;-88
2021/01/26 14:27:00;;;;;;;10.10;7.68;;;4.30;99.90;;;;;;5981959;23;20015;-83
2021/01/26 14:29:48;;;;;;;11.88;8.77;;;4.20;99.90;;;;;;6047835;23;20010;-87
2021/01/26 14:35:41;;;;;;;23.92;14.10;;;4.20;99.90;;;;;;6069385;23;20022;-86
2021/01/26 14:38:07;;;;;;;17.02;11.68;;;3.80;99.90;;;;;;6096232;23;19994;-82
2021/01/26 14:40:33;;;;;;;15.35;10.52;;;3.80;99.90;;;;;;6094717;23;20358;-80
2021/01/26 14:42:59;;;;;;;11.90;8.57;;;3.60;99.90;;;;;;6094918;23;20018;-80
2021/01/26 14:45:25;;;;;;;10.13;8.43;;;3.70;99.90;;;;;;6097034;23;20317;-83
2021/01/26 14:48:49;;;;;;;10.88;8.80;;;3.50;99.90;;;;;;6097335;23;20050;-83
2021/01/26 14:51:19;;;;;;;12.68;9.30;;;3.50;99.90;;;;;;6073810;23;20033;-83
2021/01/26 14:54:30;;;;;;;11.27;9.00;;;3.50;99.90;;;;;;6097093;23;20006;-85
2021/01/26 14:59:43;;;;;;;9.50;7.95;;;3.80;99.90;;;;;;6095754;23;20014;-80
2021/01/26 15:02:09;;;;;;;12.65;8.77;;;3.80;99.90;;;;;;6094979;23;20100;-83
2021/01/26 15:04:35;;;;;;;12.63;9.00;;;3.90;99.90;;;;;;6095422;23;20002;-85
2021/01/26 15:07:33;;;;;;;10.15;7.97;;;3.80;99.90;;;;;;6093716;23;20054;-87
2021/01/26 15:09:59;;;;;;;8.63;7.22;;;3.40;99.90;;;;;;6093149;23;20062;-78
2021/01/26 15:12:43;;;;;;;8.15;6.65;;;3.70;99.90;;;;;;6094949;23;20026;-84
2021/01/26 15:15:11;;;;;;;9.52;6.97;;;3.60;99.90;;;;;;6095603;23;20065;-82
2021/01/26 15:17:47;;;;;;;9.27;6.90;;;3.60;99.90;;;;;;6094646;23;20461;-80
2021/01/26 15:20:18;;;;;;;9.68;6.88;;;3.10;99.90;;;;;;6094346;23;20026;-82
2021/01/26 15:22:44;;;;;;;11.95;7.20;;;2.90;99.90;;;;;;6095471;23;20317;-80